createdAt,value
2019-06-08T00:00:13.233Z,57.73
2019-06-08T00:05:20.940Z,59.21
2019-06-08T00:10:27.647Z,58.09
2019-06-08T00:15:33.793Z,58.54
2019-06-08T00:20:40.202Z,59.69
2019-06-08T00:25:46.570Z,60.70
2019-06-08T00:30:52.735Z,61.06
2019-06-08T00:35:59.646Z,61.41
2019-06-08T00:41:06.119Z,61.28
2019-06-08T00:46:12.906Z,61.48
2019-06-08T00:51:21.014Z,61.58
2019-06-08T00:56:28.126Z,62.17
2019-06-08T01:01:35.223Z,60.83
2019-06-08T01:06:41.615Z,60.94
2019-06-08T01:11:48.172Z,60.19
2019-06-08T01:16:55.138Z,61.38
2019-06-08T01:22:01.607Z,62.63
2019-06-08T01:27:07.810Z,63.86
2019-06-08T01:32:14.549Z,62.29
2019-06-08T01:37:22.858Z,63.62
2019-06-08T01:42:29.775Z,62.78
2019-06-08T01:47:36.183Z,61.23
2019-06-08T01:52:42.591Z,61.48
2019-06-08T01:57:49.219Z,60.23
2019-06-08T02:02:56.010Z,61.00
2019-06-08T02:08:02.713Z,61.74
2019-06-08T02:13:09.514Z,63.35
2019-06-08T02:18:16.639Z,63.32
2019-06-08T02:23:22.807Z,65.66
2019-06-08T02:28:29.449Z,65.08
2019-06-08T02:33:37.234Z,64.75
2019-06-08T02:38:44.187Z,61.60
2019-06-08T02:43:51.391Z,62.17
2019-06-08T02:49:04.054Z,62.32
2019-06-08T02:54:06.620Z,61.66
2019-06-08T02:59:14.783Z,60.98
2019-06-08T03:04:23.969Z,58.25
2019-06-08T03:09:32.458Z,58.64
2019-06-08T03:14:42.131Z,58.66
2019-06-08T03:19:48.651Z,58.27
2019-06-08T03:24:54.820Z,57.75
2019-06-08T03:30:15.149Z,57.79
2019-06-08T03:35:09.414Z,56.82
2019-06-08T03:40:15.953Z,58.13
2019-06-08T03:45:22.563Z,58.59
2019-06-08T03:50:28.852Z,59.02
2019-06-08T03:55:35.498Z,59.61
2019-06-08T04:00:42.434Z,58.80
2019-06-08T04:05:50.089Z,58.25
2019-06-08T04:10:56.474Z,58.99
2019-06-08T04:16:06.266Z,59.55
2019-06-08T04:21:15.544Z,60.00
2019-06-08T04:26:58.675Z,59.47
2019-06-08T04:32:05.045Z,60.57
2019-06-08T04:37:15.749Z,59.92
2019-06-08T04:42:20.141Z,60.10
2019-06-08T04:47:26.620Z,60.70
2019-06-08T04:52:32.982Z,60.02
2019-06-08T04:57:41.881Z,61.19
2019-06-08T05:02:50.380Z,61.58
2019-06-08T05:07:56.335Z,62.16
2019-06-08T05:13:03.038Z,61.69
2019-06-08T05:18:09.423Z,61.89
2019-06-08T05:23:15.931Z,61.29
2019-06-08T05:28:22.718Z,61.08
2019-06-08T05:33:28.864Z,60.94
2019-06-08T05:38:35.761Z,60.66
2019-06-08T05:43:43.523Z,61.75
2019-06-08T05:48:50.522Z,61.61
2019-06-08T05:53:56.856Z,60.82
2019-06-08T05:59:03.855Z,61.25
2019-06-08T06:04:10.657Z,59.94
2019-06-08T06:09:17.087Z,60.63
2019-06-08T06:14:23.712Z,60.11
2019-06-08T06:19:30.098Z,59.32
2019-06-08T06:24:36.377Z,60.84
2019-06-08T06:29:43.499Z,60.69
2019-06-08T06:34:50.060Z,60.73
2019-06-08T06:39:56.523Z,60.90
2019-06-08T06:45:02.710Z,59.45
2019-06-08T06:50:09.206Z,59.17
2019-06-08T06:55:15.576Z,58.53
2019-06-08T07:00:31.343Z,59.03
2019-06-08T07:05:37.685Z,57.97
2019-06-08T07:10:44.587Z,56.84
2019-06-08T07:15:55.995Z,56.71
2019-06-08T07:21:00.449Z,56.11
2019-06-08T07:26:07.104Z,55.86
2019-06-08T07:31:13.192Z,57.11
2019-06-08T07:36:19.554Z,54.76
2019-06-08T07:41:25.850Z,54.71
2019-06-08T07:46:31.950Z,54.00
2019-06-08T07:51:38.392Z,52.64
2019-06-08T07:56:46.077Z,51.86
2019-06-08T08:01:53.991Z,51.87
2019-06-08T08:07:01.032Z,52.47
2019-06-08T08:12:07.508Z,50.26
2019-06-08T08:17:18.885Z,50.25
2019-06-08T08:22:29.600Z,50.63
2019-06-08T08:27:37.798Z,50.57
2019-06-08T08:32:52.703Z,50.87
2019-06-08T08:38:03.020Z,50.04
2019-06-08T08:43:09.410Z,48.12
2019-06-08T08:48:25.390Z,48.14
2019-06-08T08:53:24.080Z,47.59
2019-06-08T08:58:30.725Z,47.41
2019-06-08T09:03:39.372Z,48.51
2019-06-08T09:08:45.264Z,47.35
2019-06-08T09:13:52.389Z,46.82
2019-06-08T09:19:03.993Z,45.41
2019-06-08T09:24:07.896Z,44.12
2019-06-08T09:29:14.483Z,45.42
2019-06-08T09:34:21.073Z,43.42
2019-06-08T09:39:28.660Z,43.66
2019-06-08T09:44:37.647Z,42.96
2019-06-08T09:49:44.605Z,44.41
2019-06-08T09:54:54.164Z,43.53
2019-06-08T10:00:04.363Z,42.72
2019-06-08T10:05:08.053Z,41.20
2019-06-08T10:10:14.764Z,40.62
2019-06-08T10:15:20.944Z,44.34
2019-06-08T10:20:28.796Z,42.02
2019-06-08T10:25:38.381Z,38.58
2019-06-08T10:30:43.797Z,37.52
2019-06-08T10:35:49.966Z,35.99
2019-06-08T10:41:12.042Z,40.86
2019-06-08T10:46:16.685Z,34.62
2019-06-08T10:51:19.487Z,34.03
2019-06-08T10:56:28.390Z,32.86
2019-06-08T11:01:34.166Z,34.62
2019-06-08T11:06:40.980Z,34.20
2019-06-08T11:11:48.273Z,32.12
2019-06-08T11:16:54.560Z,32.02
2019-06-08T11:22:03.740Z,33.30
2019-06-08T11:27:12.493Z,33.10
2019-06-08T11:32:18.369Z,32.80
2019-06-08T11:37:25.093Z,31.33
2019-06-08T11:42:31.281Z,32.19
2019-06-08T11:47:39.172Z,32.05
2019-06-08T11:52:45.277Z,29.89
2019-06-08T11:57:51.603Z,30.96
2019-06-08T12:02:58.246Z,30.23
2019-06-08T12:08:04.899Z,30.77
2019-06-08T12:13:13.212Z,29.69
2019-06-08T12:18:20.028Z,29.67
2019-06-08T12:23:26.794Z,29.76
2019-06-08T12:28:33.319Z,29.87
2019-06-08T12:33:39.688Z,27.62
2019-06-08T12:38:48.558Z,29.17
2019-06-08T12:43:54.591Z,30.22
2019-06-08T12:49:00.917Z,26.45
2019-06-08T12:59:23.096Z,28.32
2019-06-08T13:04:29.203Z,28.39
2019-06-08T13:09:37.962Z,28.05
2019-06-08T13:14:43.195Z,26.42
2019-06-08T13:19:50.019Z,27.89
2019-06-08T13:24:56.116Z,27.24
2019-06-08T13:30:03.150Z,26.65
2019-06-08T13:35:10.422Z,26.39
2019-06-08T13:40:20.093Z,27.71
2019-06-08T13:45:27.825Z,27.87
2019-06-08T13:50:34.263Z,27.24
2019-06-08T13:55:53.336Z,26.89
2019-06-08T14:00:48.760Z,27.47
2019-06-08T14:05:54.940Z,27.26
2019-06-08T14:11:01.398Z,26.81
2019-06-08T14:16:08.890Z,26.40
2019-06-08T14:21:25.755Z,26.08
2019-06-08T14:26:25.988Z,26.26
2019-06-08T14:31:32.321Z,26.61
2019-06-08T14:36:40.974Z,25.58
2019-06-08T14:41:47.529Z,25.48
2019-06-08T14:46:54.983Z,24.78
2019-06-08T14:52:01.375Z,24.43
2019-06-08T14:57:07.961Z,25.41
2019-06-08T15:02:14.668Z,25.42
2019-06-08T15:07:23.425Z,25.28
2019-06-08T15:12:31.319Z,26.90
2019-06-08T15:17:37.945Z,27.93
2019-06-08T15:22:44.615Z,25.21
2019-06-08T15:27:51.405Z,25.48
2019-06-08T15:32:58.859Z,26.20
2019-06-08T15:38:05.398Z,26.60
2019-06-08T15:43:12.062Z,28.82
2019-06-08T15:48:20.404Z,25.91
2019-06-08T15:53:29.679Z,25.77
2019-06-08T15:58:35.056Z,26.50
2019-06-08T16:03:41.395Z,27.01
2019-06-08T16:08:47.884Z,25.76
2019-06-08T16:13:54.907Z,25.41
2019-06-08T16:19:01.468Z,25.09
2019-06-08T16:24:07.698Z,26.43
2019-06-08T16:29:14.129Z,25.35
2019-06-08T16:34:20.583Z,27.67
2019-06-08T16:39:26.988Z,26.32
2019-06-08T16:44:34.296Z,27.05
2019-06-08T16:49:40.679Z,27.53
2019-06-08T16:54:47.473Z,25.41
2019-06-08T16:59:53.922Z,25.77
2019-06-08T17:04:59.973Z,29.49
2019-06-08T17:10:06.743Z,26.40
2019-06-08T17:15:14.112Z,27.73
2019-06-08T17:20:20.346Z,28.57
2019-06-08T17:25:26.798Z,27.86
2019-06-08T17:30:35.463Z,27.99
2019-06-08T17:35:42.488Z,28.68
2019-06-08T17:40:49.190Z,29.01
2019-06-08T17:45:55.504Z,28.01
2019-06-08T17:51:02.402Z,29.06
2019-06-08T17:56:09.189Z,29.60
2019-06-08T18:01:16.176Z,29.80
2019-06-08T18:06:23.537Z,29.72
2019-06-08T18:11:29.927Z,31.35
2019-06-08T18:16:38.959Z,33.02
2019-06-08T18:21:44.594Z,33.75
2019-06-08T18:26:53.295Z,34.31
2019-06-08T18:31:59.458Z,34.19
2019-06-08T18:37:08.412Z,35.38
2019-06-08T18:42:14.612Z,35.46
2019-06-08T18:47:20.783Z,35.86
2019-06-08T18:52:28.251Z,36.69
2019-06-08T18:57:35.401Z,37.61
2019-06-08T19:02:44.906Z,38.47
2019-06-08T19:07:52.240Z,38.71
2019-06-08T19:12:58.684Z,40.71
2019-06-08T19:18:07.936Z,40.73
2019-06-08T19:23:13.390Z,42.01
2019-06-08T19:28:35.282Z,41.51
2019-06-08T19:33:28.153Z,40.69
2019-06-08T19:38:34.627Z,40.19
2019-06-08T19:43:42.973Z,41.41
2019-06-08T19:48:54.292Z,43.55
2019-06-08T19:53:58.373Z,44.78
2019-06-08T19:59:06.249Z,45.17
2019-06-08T20:04:13.020Z,46.55
2019-06-08T20:09:19.434Z,48.51
2019-06-08T20:14:26.651Z,51.05
2019-06-08T20:19:32.980Z,50.50
2019-06-08T20:24:39.342Z,48.94
2019-06-08T20:29:47.846Z,48.69
2019-06-08T20:34:53.837Z,49.26
2019-06-08T20:40:10.269Z,52.66
2019-06-08T20:45:08.527Z,53.79
2019-06-08T20:50:14.811Z,53.57
2019-06-08T20:55:21.410Z,53.84
2019-06-08T21:00:28.288Z,54.32
2019-06-08T21:05:34.750Z,55.08
2019-06-08T21:10:41.105Z,54.41
2019-06-08T21:15:52.600Z,53.65
2019-06-08T21:20:58.130Z,52.90
2019-06-08T21:26:04.367Z,53.22
2019-06-08T21:31:10.728Z,55.95
2019-06-08T21:36:18.198Z,56.23
2019-06-08T21:41:24.422Z,57.43
2019-06-08T21:46:31.411Z,57.30
2019-06-08T21:51:38.347Z,57.55
2019-06-08T21:56:44.435Z,59.88
2019-06-08T22:01:53.042Z,60.56
2019-06-08T22:07:01.135Z,59.91
2019-06-08T22:12:07.257Z,59.77
2019-06-08T22:17:15.962Z,59.42
2019-06-08T22:22:21.825Z,60.10
2019-06-08T22:27:28.369Z,61.95
2019-06-08T22:32:35.118Z,63.06
2019-06-08T22:37:42.043Z,62.13
2019-06-08T22:42:48.255Z,61.26
2019-06-08T22:47:57.478Z,61.27
2019-06-08T22:53:03.963Z,62.55
2019-06-08T22:58:10.811Z,63.18
2019-06-08T23:03:18.425Z,63.74
2019-06-08T23:08:25.609Z,63.77
2019-06-08T23:13:32.059Z,64.48
2019-06-08T23:18:38.547Z,63.34
2019-06-08T23:23:47.470Z,63.25
2019-06-08T23:28:53.521Z,63.77
2019-06-08T23:34:03.920Z,63.69
2019-06-08T23:39:09.411Z,64.93
2019-06-08T23:44:17.613Z,65.69
2019-06-08T23:49:24.454Z,66.66
2019-06-08T23:54:30.980Z,66.26
2019-06-08T23:59:37.794Z,67.16
